sensor_id;sensor_type;location;lat;lon;timestamp;temperature;humidity
13310;DHT22;6723;48.256;16.402;2023-02-11T00:00:48;2.30;82.30
13310;DHT22;6723;48.256;16.402;2023-02-11T00:03:14;2.30;82.30
13310;DHT22;6723;48.256;16.402;2023-02-11T00:05:40;2.30;83.00
13310;DHT22;6723;48.256;16.402;2023-02-11T00:08:06;2.20;82.90
13310;DHT22;6723;48.256;16.402;2023-02-11T00:10:31;2.20;83.10
13310;DHT22;6723;48.256;16.402;2023-02-11T00:12:57;2.20;83.30
13310;DHT22;6723;48.256;16.402;2023-02-11T00:15:23;2.10;83.50
13310;DHT22;6723;48.256;16.402;2023-02-11T00:17:49;2.10;83.50
13310;DHT22;6723;48.256;16.402;2023-02-11T00:20:14;2.10;83.60
13310;DHT22;6723;48.256;16.402;2023-02-11T00:22:40;2.00;83.70
13310;DHT22;6723;48.256;16.402;2023-02-11T00:25:09;2.00;83.70
13310;DHT22;6723;48.256;16.402;2023-02-11T00:27:36;2.00;83.80
13310;DHT22;6723;48.256;16.402;2023-02-11T00:30:02;2.00;83.70
13310;DHT22;6723;48.256;16.402;2023-02-11T00:32:29;2.00;83.70
13310;DHT22;6723;48.256;16.402;2023-02-11T00:34:55;2.00;83.80
13310;DHT22;6723;48.256;16.402;2023-02-11T00:37:21;2.00;83.60
13310;DHT22;6723;48.256;16.402;2023-02-11T00:39:47;1.90;83.70
13310;DHT22;6723;48.256;16.402;2023-02-11T00:42:15;1.90;83.90
13310;DHT22;6723;48.256;16.402;2023-02-11T00:44:40;1.90;84.10
13310;DHT22;6723;48.256;16.402;2023-02-11T00:47:06;1.80;84.30
13310;DHT22;6723;48.256;16.402;2023-02-11T00:49:32;1.80;84.60
13310;DHT22;6723;48.256;16.402;2023-02-11T00:51:58;1.80;84.70
13310;DHT22;6723;48.256;16.402;2023-02-11T00:54:23;1.80;84.80
13310;DHT22;6723;48.256;16.402;2023-02-11T00:56:49;1.70;84.90
13310;DHT22;6723;48.256;16.402;2023-02-11T00:59:15;1.70;84.90
13310;DHT22;6723;48.256;16.402;2023-02-11T01:01:41;1.70;85.10
13310;DHT22;6723;48.256;16.402;2023-02-11T01:04:07;1.60;85.10
13310;DHT22;6723;48.256;16.402;2023-02-11T01:06:33;1.60;85.20
13310;DHT22;6723;48.256;16.402;2023-02-11T01:08:58;1.60;85.50
13310;DHT22;6723;48.256;16.402;2023-02-11T01:11:24;1.50;85.60
13310;DHT22;6723;48.256;16.402;2023-02-11T01:13:50;1.50;85.80
13310;DHT22;6723;48.256;16.402;2023-02-11T01:16:17;1.40;85.70
13310;DHT22;6723;48.256;16.402;2023-02-11T01:18:43;1.40;85.80
13310;DHT22;6723;48.256;16.402;2023-02-11T01:21:09;1.30;86.20
13310;DHT22;6723;48.256;16.402;2023-02-11T01:23:35;1.30;86.40
13310;DHT22;6723;48.256;16.402;2023-02-11T01:26:01;1.30;86.80
13310;DHT22;6723;48.256;16.402;2023-02-11T01:28:28;1.20;86.80
13310;DHT22;6723;48.256;16.402;2023-02-11T01:30:55;1.20;87.00
13310;DHT22;6723;48.256;16.402;2023-02-11T01:33:22;1.20;87.50
13310;DHT22;6723;48.256;16.402;2023-02-11T01:35:48;1.20;87.70
13310;DHT22;6723;48.256;16.402;2023-02-11T01:38:20;1.20;88.10
13310;DHT22;6723;48.256;16.402;2023-02-11T01:40:54;1.20;88.00
13310;DHT22;6723;48.256;16.402;2023-02-11T01:43:25;1.10;88.20
13310;DHT22;6723;48.256;16.402;2023-02-11T01:46:01;1.00;88.40
13310;DHT22;6723;48.256;16.402;2023-02-11T01:48:33;1.00;88.90
13310;DHT22;6723;48.256;16.402;2023-02-11T01:51:29;1.00;89.30
13310;DHT22;6723;48.256;16.402;2023-02-11T01:53:56;0.90;89.20
13310;DHT22;6723;48.256;16.402;2023-02-11T01:56:44;0.90;89.50
13310;DHT22;6723;48.256;16.402;2023-02-11T01:59:44;0.80;89.70
13310;DHT22;6723;48.256;16.402;2023-02-11T02:02:16;0.80;90.00
13310;DHT22;6723;48.256;16.402;2023-02-11T02:08:06;0.70;90.20
13310;DHT22;6723;48.256;16.402;2023-02-11T02:10:35;0.70;90.50
13310;DHT22;6723;48.256;16.402;2023-02-11T02:13:02;0.70;90.60
13310;DHT22;6723;48.256;16.402;2023-02-11T02:15:36;0.70;90.70
13310;DHT22;6723;48.256;16.402;2023-02-11T02:29:36;0.60;91.20
13310;DHT22;6723;48.256;16.402;2023-02-11T02:35:18;0.70;91.60
13310;DHT22;6723;48.256;16.402;2023-02-11T02:37:55;0.60;91.50
13310;DHT22;6723;48.256;16.402;2023-02-11T02:40:33;0.60;91.60
13310;DHT22;6723;48.256;16.402;2023-02-11T02:43:00;0.60;91.80
13310;DHT22;6723;48.256;16.402;2023-02-11T02:45:27;0.60;91.90
13310;DHT22;6723;48.256;16.402;2023-02-11T02:47:53;0.60;92.00
13310;DHT22;6723;48.256;16.402;2023-02-11T02:50:26;0.60;92.10
13310;DHT22;6723;48.256;16.402;2023-02-11T02:53:17;0.70;92.50
13310;DHT22;6723;48.256;16.402;2023-02-11T03:02:11;0.80;92.60
13310;DHT22;6723;48.256;16.402;2023-02-11T03:04:34;1.00;92.90
13310;DHT22;6723;48.256;16.402;2023-02-11T03:07:11;0.90;92.70
13310;DHT22;6723;48.256;16.402;2023-02-11T03:09:58;1.00;92.80
13310;DHT22;6723;48.256;16.402;2023-02-11T03:12:29;0.90;92.70
13310;DHT22;6723;48.256;16.402;2023-02-11T03:14:57;0.90;93.00
13310;DHT22;6723;48.256;16.402;2023-02-11T03:17:25;1.00;93.10
13310;DHT22;6723;48.256;16.402;2023-02-11T03:19:52;1.00;93.00
13310;DHT22;6723;48.256;16.402;2023-02-11T03:22:26;1.00;92.90
13310;DHT22;6723;48.256;16.402;2023-02-11T03:24:55;0.90;93.00
13310;DHT22;6723;48.256;16.402;2023-02-11T03:27:27;0.90;93.10
13310;DHT22;6723;48.256;16.402;2023-02-11T03:30:04;1.00;93.40
13310;DHT22;6723;48.256;16.402;2023-02-11T03:32:42;1.00;93.30
13310;DHT22;6723;48.256;16.402;2023-02-11T03:35:14;1.00;93.40
13310;DHT22;6723;48.256;16.402;2023-02-11T03:38:06;1.10;93.30
13310;DHT22;6723;48.256;16.402;2023-02-11T03:40:36;1.10;93.60
13310;DHT22;6723;48.256;16.402;2023-02-11T03:43:09;1.30;93.60
13310;DHT22;6723;48.256;16.402;2023-02-11T03:45:43;1.30;93.60
13310;DHT22;6723;48.256;16.402;2023-02-11T03:48:25;1.50;93.40
13310;DHT22;6723;48.256;16.402;2023-02-11T03:50:53;1.60;93.40
13310;DHT22;6723;48.256;16.402;2023-02-11T03:53:22;1.70;93.30
13310;DHT22;6723;48.256;16.402;2023-02-11T03:55:50;1.80;93.20
13310;DHT22;6723;48.256;16.402;2023-02-11T03:58:17;1.90;92.90
13310;DHT22;6723;48.256;16.402;2023-02-11T04:00:43;2.00;92.70
13310;DHT22;6723;48.256;16.402;2023-02-11T04:03:10;2.10;92.60
13310;DHT22;6723;48.256;16.402;2023-02-11T04:05:37;2.20;92.40
13310;DHT22;6723;48.256;16.402;2023-02-11T04:08:03;2.20;92.30
13310;DHT22;6723;48.256;16.402;2023-02-11T04:10:29;2.30;92.20
13310;DHT22;6723;48.256;16.402;2023-02-11T04:12:55;2.30;92.20
13310;DHT22;6723;48.256;16.402;2023-02-11T04:15:21;2.40;92.20
13310;DHT22;6723;48.256;16.402;2023-02-11T04:17:47;2.40;92.10
13310;DHT22;6723;48.256;16.402;2023-02-11T04:20:13;2.40;92.10
13310;DHT22;6723;48.256;16.402;2023-02-11T04:22:38;2.40;92.00
13310;DHT22;6723;48.256;16.402;2023-02-11T04:25:05;2.40;92.20
13310;DHT22;6723;48.256;16.402;2023-02-11T04:27:35;2.40;92.20
13310;DHT22;6723;48.256;16.402;2023-02-11T04:30:01;2.30;92.20
13310;DHT22;6723;48.256;16.402;2023-02-11T04:32:27;2.30;92.20
13310;DHT22;6723;48.256;16.402;2023-02-11T04:34:53;2.30;92.20
13310;DHT22;6723;48.256;16.402;2023-02-11T04:37:19;2.30;92.20
13310;DHT22;6723;48.256;16.402;2023-02-11T04:39:45;2.30;92.20
13310;DHT22;6723;48.256;16.402;2023-02-11T04:42:19;2.40;92.30
13310;DHT22;6723;48.256;16.402;2023-02-11T04:44:45;2.30;92.20
13310;DHT22;6723;48.256;16.402;2023-02-11T04:47:10;2.40;92.30
13310;DHT22;6723;48.256;16.402;2023-02-11T04:49:38;2.50;92.30
13310;DHT22;6723;48.256;16.402;2023-02-11T04:52:03;2.50;92.30
13310;DHT22;6723;48.256;16.402;2023-02-11T04:54:32;2.40;92.30
13310;DHT22;6723;48.256;16.402;2023-02-11T04:57:00;2.50;92.30
13310;DHT22;6723;48.256;16.402;2023-02-11T04:59:27;2.50;92.50
13310;DHT22;6723;48.256;16.402;2023-02-11T05:01:53;2.60;92.40
13310;DHT22;6723;48.256;16.402;2023-02-11T05:04:18;2.70;92.20
13310;DHT22;6723;48.256;16.402;2023-02-11T05:06:44;2.80;92.10
13310;DHT22;6723;48.256;16.402;2023-02-11T05:09:12;2.80;92.00
13310;DHT22;6723;48.256;16.402;2023-02-11T05:11:38;2.90;92.00
13310;DHT22;6723;48.256;16.402;2023-02-11T05:14:07;2.90;92.00
13310;DHT22;6723;48.256;16.402;2023-02-11T05:16:33;2.90;91.90
13310;DHT22;6723;48.256;16.402;2023-02-11T05:18:59;3.00;91.90
13310;DHT22;6723;48.256;16.402;2023-02-11T05:21:24;3.00;91.80
13310;DHT22;6723;48.256;16.402;2023-02-11T05:23:50;3.10;91.70
13310;DHT22;6723;48.256;16.402;2023-02-11T05:26:17;3.10;91.50
13310;DHT22;6723;48.256;16.402;2023-02-11T05:28:43;3.10;91.50
13310;DHT22;6723;48.256;16.402;2023-02-11T05:31:10;3.10;91.50
13310;DHT22;6723;48.256;16.402;2023-02-11T05:33:36;3.20;91.40
13310;DHT22;6723;48.256;16.402;2023-02-11T05:36:05;3.20;91.30
13310;DHT22;6723;48.256;16.402;2023-02-11T05:38:33;3.20;91.30
13310;DHT22;6723;48.256;16.402;2023-02-11T05:40:59;3.20;91.30
13310;DHT22;6723;48.256;16.402;2023-02-11T05:43:25;3.20;91.20
13310;DHT22;6723;48.256;16.402;2023-02-11T05:45:51;3.20;91.20
13310;DHT22;6723;48.256;16.402;2023-02-11T05:48:17;3.20;91.20
13310;DHT22;6723;48.256;16.402;2023-02-11T05:50:43;3.20;91.20
13310;DHT22;6723;48.256;16.402;2023-02-11T05:53:09;3.20;91.20
13310;DHT22;6723;48.256;16.402;2023-02-11T05:55:35;3.20;91.10
13310;DHT22;6723;48.256;16.402;2023-02-11T05:58:01;3.20;91.00
13310;DHT22;6723;48.256;16.402;2023-02-11T06:00:27;3.20;91.00
13310;DHT22;6723;48.256;16.402;2023-02-11T06:02:57;3.20;91.00
13310;DHT22;6723;48.256;16.402;2023-02-11T06:05:24;3.20;91.10
13310;DHT22;6723;48.256;16.402;2023-02-11T06:07:51;3.20;91.00
13310;DHT22;6723;48.256;16.402;2023-02-11T06:10:16;3.20;91.10
13310;DHT22;6723;48.256;16.402;2023-02-11T06:12:43;3.10;91.10
13310;DHT22;6723;48.256;16.402;2023-02-11T06:15:09;3.10;91.00
13310;DHT22;6723;48.256;16.402;2023-02-11T06:17:35;3.20;91.00
13310;DHT22;6723;48.256;16.402;2023-02-11T06:20:04;3.20;90.90
13310;DHT22;6723;48.256;16.402;2023-02-11T06:22:31;3.20;91.00
13310;DHT22;6723;48.256;16.402;2023-02-11T06:24:56;3.20;90.70
13310;DHT22;6723;48.256;16.402;2023-02-11T06:27:22;3.20;90.70
13310;DHT22;6723;48.256;16.402;2023-02-11T06:29:48;3.20;90.70
13310;DHT22;6723;48.256;16.402;2023-02-11T06:32:17;3.20;90.70
13310;DHT22;6723;48.256;16.402;2023-02-11T06:34:43;3.20;90.70
13310;DHT22;6723;48.256;16.402;2023-02-11T06:37:09;3.20;90.70
13310;DHT22;6723;48.256;16.402;2023-02-11T06:39:35;3.30;90.70
13310;DHT22;6723;48.256;16.402;2023-02-11T06:42:03;3.30;90.80
13310;DHT22;6723;48.256;16.402;2023-02-11T06:44:29;3.40;90.60
13310;DHT22;6723;48.256;16.402;2023-02-11T06:46:55;3.40;90.50
13310;DHT22;6723;48.256;16.402;2023-02-11T06:49:21;3.40;90.50
13310;DHT22;6723;48.256;16.402;2023-02-11T06:51:46;3.50;90.70
13310;DHT22;6723;48.256;16.402;2023-02-11T06:54:12;3.60;90.90
13310;DHT22;6723;48.256;16.402;2023-02-11T06:56:40;3.60;90.90
13310;DHT22;6723;48.256;16.402;2023-02-11T06:59:06;3.70;90.80
13310;DHT22;6723;48.256;16.402;2023-02-11T07:01:33;3.80;90.70
13310;DHT22;6723;48.256;16.402;2023-02-11T07:03:58;3.90;90.70
13310;DHT22;6723;48.256;16.402;2023-02-11T07:06:25;4.00;90.70
13310;DHT22;6723;48.256;16.402;2023-02-11T07:08:53;4.00;90.50
13310;DHT22;6723;48.256;16.402;2023-02-11T07:11:25;4.10;90.30
13310;DHT22;6723;48.256;16.402;2023-02-11T07:13:54;4.10;90.10
13310;DHT22;6723;48.256;16.402;2023-02-11T07:16:21;4.20;90.10
13310;DHT22;6723;48.256;16.402;2023-02-11T07:18:48;4.30;89.80
13310;DHT22;6723;48.256;16.402;2023-02-11T07:21:16;4.30;89.40
13310;DHT22;6723;48.256;16.402;2023-02-11T07:23:43;4.40;89.20
13310;DHT22;6723;48.256;16.402;2023-02-11T07:26:12;4.40;88.60
13310;DHT22;6723;48.256;16.402;2023-02-11T07:28:39;4.50;88.60
13310;DHT22;6723;48.256;16.402;2023-02-11T07:31:13;4.60;88.20
13310;DHT22;6723;48.256;16.402;2023-02-11T07:33:40;4.60;88.00
13310;DHT22;6723;48.256;16.402;2023-02-11T07:36:07;4.60;88.30
13310;DHT22;6723;48.256;16.402;2023-02-11T07:38:35;4.70;87.70
13310;DHT22;6723;48.256;16.402;2023-02-11T07:41:04;4.80;87.50
13310;DHT22;6723;48.256;16.402;2023-02-11T07:43:31;4.70;87.40
13310;DHT22;6723;48.256;16.402;2023-02-11T07:45:58;4.80;86.70
13310;DHT22;6723;48.256;16.402;2023-02-11T07:48:24;4.90;86.40
13310;DHT22;6723;48.256;16.402;2023-02-11T07:50:49;4.90;85.80
13310;DHT22;6723;48.256;16.402;2023-02-11T07:53:16;4.90;85.80
13310;DHT22;6723;48.256;16.402;2023-02-11T07:55:44;5.00;85.30
13310;DHT22;6723;48.256;16.402;2023-02-11T07:58:13;4.90;85.20
13310;DHT22;6723;48.256;16.402;2023-02-11T08:00:39;5.00;85.60
13310;DHT22;6723;48.256;16.402;2023-02-11T08:03:04;5.00;85.10
13310;DHT22;6723;48.256;16.402;2023-02-11T08:05:36;5.00;85.40
13310;DHT22;6723;48.256;16.402;2023-02-11T08:08:02;5.00;84.70
13310;DHT22;6723;48.256;16.402;2023-02-11T08:10:29;5.00;84.70
13310;DHT22;6723;48.256;16.402;2023-02-11T08:12:55;5.00;84.70
13310;DHT22;6723;48.256;16.402;2023-02-11T08:15:20;5.10;84.50
13310;DHT22;6723;48.256;16.402;2023-02-11T08:17:46;5.10;84.20
13310;DHT22;6723;48.256;16.402;2023-02-11T08:20:12;5.30;83.90
13310;DHT22;6723;48.256;16.402;2023-02-11T08:22:38;5.40;83.40
13310;DHT22;6723;48.256;16.402;2023-02-11T08:25:04;5.30;83.20
13310;DHT22;6723;48.256;16.402;2023-02-11T08:27:30;5.40;83.10
13310;DHT22;6723;48.256;16.402;2023-02-11T08:29:56;5.40;82.90
13310;DHT22;6723;48.256;16.402;2023-02-11T08:32:23;5.30;82.90
13310;DHT22;6723;48.256;16.402;2023-02-11T08:34:51;5.40;82.80
13310;DHT22;6723;48.256;16.402;2023-02-11T08:37:17;5.50;82.70
13310;DHT22;6723;48.256;16.402;2023-02-11T08:39:44;5.30;82.70
13310;DHT22;6723;48.256;16.402;2023-02-11T08:42:12;5.30;82.70
13310;DHT22;6723;48.256;16.402;2023-02-11T08:44:40;5.20;82.90
13310;DHT22;6723;48.256;16.402;2023-02-11T08:47:07;5.20;82.90
13310;DHT22;6723;48.256;16.402;2023-02-11T08:49:32;5.50;82.90
13310;DHT22;6723;48.256;16.402;2023-02-11T08:51:59;5.60;82.20
13310;DHT22;6723;48.256;16.402;2023-02-11T08:54:29;5.90;81.20
13310;DHT22;6723;48.256;16.402;2023-02-11T08:56:55;6.10;81.10
13310;DHT22;6723;48.256;16.402;2023-02-11T08:59:21;6.10;80.40
13310;DHT22;6723;48.256;16.402;2023-02-11T09:01:50;6.20;80.90
13310;DHT22;6723;48.256;16.402;2023-02-11T09:04:16;6.20;80.00
13310;DHT22;6723;48.256;16.402;2023-02-11T09:06:42;6.30;80.80
13310;DHT22;6723;48.256;16.402;2023-02-11T09:09:11;6.50;80.30
13310;DHT22;6723;48.256;16.402;2023-02-11T09:11:38;6.50;79.70
13310;DHT22;6723;48.256;16.402;2023-02-11T09:14:25;6.30;79.30
13310;DHT22;6723;48.256;16.402;2023-02-11T09:16:52;6.60;79.70
13310;DHT22;6723;48.256;16.402;2023-02-11T09:19:19;6.80;78.80
13310;DHT22;6723;48.256;16.402;2023-02-11T09:21:45;7.10;78.70
13310;DHT22;6723;48.256;16.402;2023-02-11T09:24:11;7.10;77.90
13310;DHT22;6723;48.256;16.402;2023-02-11T09:26:37;7.20;78.00
13310;DHT22;6723;48.256;16.402;2023-02-11T09:29:05;7.70;78.00
13310;DHT22;6723;48.256;16.402;2023-02-11T09:31:33;7.70;76.70
13310;DHT22;6723;48.256;16.402;2023-02-11T09:34:04;7.90;76.80
13310;DHT22;6723;48.256;16.402;2023-02-11T09:36:33;7.60;76.60
13310;DHT22;6723;48.256;16.402;2023-02-11T09:39:03;7.50;76.40
13310;DHT22;6723;48.256;16.402;2023-02-11T09:41:38;7.50;77.10
13310;DHT22;6723;48.256;16.402;2023-02-11T09:44:15;7.30;77.70
13310;DHT22;6723;48.256;16.402;2023-02-11T09:46:49;7.40;77.80
13310;DHT22;6723;48.256;16.402;2023-02-11T09:49:38;7.10;77.50
13310;DHT22;6723;48.256;16.402;2023-02-11T09:52:29;7.00;77.70
13310;DHT22;6723;48.256;16.402;2023-02-11T09:55:01;7.00;78.30
13310;DHT22;6723;48.256;16.402;2023-02-11T09:57:36;7.20;77.90
13310;DHT22;6723;48.256;16.402;2023-02-11T10:00:29;7.60;77.90
13310;DHT22;6723;48.256;16.402;2023-02-11T10:08:28;10.00;75.40
13310;DHT22;6723;48.256;16.402;2023-02-11T10:24:57;9.40;72.70
13310;DHT22;6723;48.256;16.402;2023-02-11T10:27:32;9.00;73.60
13310;DHT22;6723;48.256;16.402;2023-02-11T10:35:38;8.80;75.00
13310;DHT22;6723;48.256;16.402;2023-02-11T10:38:08;8.30;74.20
13310;DHT22;6723;48.256;16.402;2023-02-11T10:40:34;8.20;75.20
13310;DHT22;6723;48.256;16.402;2023-02-11T10:43:09;8.40;74.60
13310;DHT22;6723;48.256;16.402;2023-02-11T10:45:45;8.40;74.70
13310;DHT22;6723;48.256;16.402;2023-02-11T10:48:38;8.00;75.20
13310;DHT22;6723;48.256;16.402;2023-02-11T10:51:27;8.10;75.20
13310;DHT22;6723;48.256;16.402;2023-02-11T10:56:33;8.10;75.20
13310;DHT22;6723;48.256;16.402;2023-02-11T10:59:06;8.00;75.10
13310;DHT22;6723;48.256;16.402;2023-02-11T11:01:49;8.00;75.00
13310;DHT22;6723;48.256;16.402;2023-02-11T11:07:17;8.40;74.60
13310;DHT22;6723;48.256;16.402;2023-02-11T11:09:51;8.30;74.30
13310;DHT22;6723;48.256;16.402;2023-02-11T11:12:45;8.80;74.20
13310;DHT22;6723;48.256;16.402;2023-02-11T11:15:41;8.70;73.80
13310;DHT22;6723;48.256;16.402;2023-02-11T11:18:17;8.50;74.10
13310;DHT22;6723;48.256;16.402;2023-02-11T11:20:55;8.60;73.80
13310;DHT22;6723;48.256;16.402;2023-02-11T11:23:22;8.60;74.00
13310;DHT22;6723;48.256;16.402;2023-02-11T11:26:14;8.40;73.80
13310;DHT22;6723;48.256;16.402;2023-02-11T11:28:52;8.50;74.30
13310;DHT22;6723;48.256;16.402;2023-02-11T11:31:29;8.40;74.10
13310;DHT22;6723;48.256;16.402;2023-02-11T11:33:58;8.60;73.80
13310;DHT22;6723;48.256;16.402;2023-02-11T11:36:38;8.50;73.90
13310;DHT22;6723;48.256;16.402;2023-02-11T11:39:27;8.30;74.10
13310;DHT22;6723;48.256;16.402;2023-02-11T11:41:59;8.30;74.40
13310;DHT22;6723;48.256;16.402;2023-02-11T11:52:36;8.10;73.70
13310;DHT22;6723;48.256;16.402;2023-02-11T11:55:18;8.30;74.10
13310;DHT22;6723;48.256;16.402;2023-02-11T11:57:46;8.30;73.80
13310;DHT22;6723;48.256;16.402;2023-02-11T12:00:18;8.20;73.10
13310;DHT22;6723;48.256;16.402;2023-02-11T12:14:52;8.40;72.90
13310;DHT22;6723;48.256;16.402;2023-02-11T12:25:05;8.40;74.60
13310;DHT22;6723;48.256;16.402;2023-02-11T12:28:04;8.20;75.40
13310;DHT22;6723;48.256;16.402;2023-02-11T12:30:45;8.00;76.10
13310;DHT22;6723;48.256;16.402;2023-02-11T12:36:07;8.10;76.50
13310;DHT22;6723;48.256;16.402;2023-02-11T12:38:38;8.00;75.80
13310;DHT22;6723;48.256;16.402;2023-02-11T12:41:26;8.00;75.60
13310;DHT22;6723;48.256;16.402;2023-02-11T12:44:51;7.90;75.20
13310;DHT22;6723;48.256;16.402;2023-02-11T12:47:49;7.90;75.00
13310;DHT22;6723;48.256;16.402;2023-02-11T12:56:02;7.90;73.80
13310;DHT22;6723;48.256;16.402;2023-02-11T12:58:31;7.90;73.80
13310;DHT22;6723;48.256;16.402;2023-02-11T13:01:19;7.90;73.80
13310;DHT22;6723;48.256;16.402;2023-02-11T13:04:16;8.00;73.60
13310;DHT22;6723;48.256;16.402;2023-02-11T13:06:48;7.90;73.10
13310;DHT22;6723;48.256;16.402;2023-02-11T13:09:25;7.90;73.10
13310;DHT22;6723;48.256;16.402;2023-02-11T13:11:57;8.00;72.90
13310;DHT22;6723;48.256;16.402;2023-02-11T13:14:45;7.90;72.70
13310;DHT22;6723;48.256;16.402;2023-02-11T13:17:28;7.70;73.00
13310;DHT22;6723;48.256;16.402;2023-02-11T13:20:06;7.80;73.40
13310;DHT22;6723;48.256;16.402;2023-02-11T13:22:45;7.80;73.60
13310;DHT22;6723;48.256;16.402;2023-02-11T13:28:21;7.70;73.90
13310;DHT22;6723;48.256;16.402;2023-02-11T13:30:47;7.80;74.10
13310;DHT22;6723;48.256;16.402;2023-02-11T13:33:36;7.80;74.10
13310;DHT22;6723;48.256;16.402;2023-02-11T13:38:30;7.50;75.50
13310;DHT22;6723;48.256;16.402;2023-02-11T13:41:14;7.70;75.70
13310;DHT22;6723;48.256;16.402;2023-02-11T13:43:40;7.50;76.00
13310;DHT22;6723;48.256;16.402;2023-02-11T13:46:12;7.50;76.50
13310;DHT22;6723;48.256;16.402;2023-02-11T13:48:50;7.50;76.90
13310;DHT22;6723;48.256;16.402;2023-02-11T13:51:34;7.50;77.20
13310;DHT22;6723;48.256;16.402;2023-02-11T13:54:02;7.50;77.50
13310;DHT22;6723;48.256;16.402;2023-02-11T13:56:32;7.50;77.70
13310;DHT22;6723;48.256;16.402;2023-02-11T13:59:03;7.50;78.10
13310;DHT22;6723;48.256;16.402;2023-02-11T14:04:25;7.50;78.20
13310;DHT22;6723;48.256;16.402;2023-02-11T14:07:26;7.50;78.20
13310;DHT22;6723;48.256;16.402;2023-02-11T14:10:47;7.50;78.60
13310;DHT22;6723;48.256;16.402;2023-02-11T14:18:38;7.40;79.40
13310;DHT22;6723;48.256;16.402;2023-02-11T14:21:23;7.40;79.40
13310;DHT22;6723;48.256;16.402;2023-02-11T14:35:03;7.20;80.10
13310;DHT22;6723;48.256;16.402;2023-02-11T14:42:53;7.10;80.50
13310;DHT22;6723;48.256;16.402;2023-02-11T14:45:24;7.20;81.00
13310;DHT22;6723;48.256;16.402;2023-02-11T14:48:12;7.20;81.10
13310;DHT22;6723;48.256;16.402;2023-02-11T14:50:48;7.10;81.10
13310;DHT22;6723;48.256;16.402;2023-02-11T14:53:18;7.10;81.60
13310;DHT22;6723;48.256;16.402;2023-02-11T14:55:51;7.00;81.60
13310;DHT22;6723;48.256;16.402;2023-02-11T14:58:21;7.10;81.90
13310;DHT22;6723;48.256;16.402;2023-02-11T15:01:00;7.10;81.90
13310;DHT22;6723;48.256;16.402;2023-02-11T15:03:33;7.20;82.10
13310;DHT22;6723;48.256;16.402;2023-02-11T15:08:42;7.20;82.40
13310;DHT22;6723;48.256;16.402;2023-02-11T15:11:13;7.10;82.50
13310;DHT22;6723;48.256;16.402;2023-02-11T15:13:40;7.10;83.40
13310;DHT22;6723;48.256;16.402;2023-02-11T15:16:12;7.10;83.30
13310;DHT22;6723;48.256;16.402;2023-02-11T15:18:47;7.10;83.30
13310;DHT22;6723;48.256;16.402;2023-02-11T15:21:23;7.10;83.50
13310;DHT22;6723;48.256;16.402;2023-02-11T15:24:05;7.10;83.30
13310;DHT22;6723;48.256;16.402;2023-02-11T15:26:44;7.00;83.70
13310;DHT22;6723;48.256;16.402;2023-02-11T15:29:15;7.00;83.70
13310;DHT22;6723;48.256;16.402;2023-02-11T15:31:44;7.00;83.80
13310;DHT22;6723;48.256;16.402;2023-02-11T15:34:11;7.00;84.10
13310;DHT22;6723;48.256;16.402;2023-02-11T15:36:37;7.00;84.10
13310;DHT22;6723;48.256;16.402;2023-02-11T15:39:39;7.00;84.20
13310;DHT22;6723;48.256;16.402;2023-02-11T15:42:25;7.00;84.30
13310;DHT22;6723;48.256;16.402;2023-02-11T15:45:25;6.90;84.60
13310;DHT22;6723;48.256;16.402;2023-02-11T15:48:00;7.00;84.80
13310;DHT22;6723;48.256;16.402;2023-02-11T15:50:32;6.90;85.10
13310;DHT22;6723;48.256;16.402;2023-02-11T15:55:51;6.80;85.90
13310;DHT22;6723;48.256;16.402;2023-02-11T15:58:19;6.70;86.00
13310;DHT22;6723;48.256;16.402;2023-02-11T16:00:51;6.80;86.40
13310;DHT22;6723;48.256;16.402;2023-02-11T16:03:26;6.70;86.30
13310;DHT22;6723;48.256;16.402;2023-02-11T16:06:19;6.70;86.70
13310;DHT22;6723;48.256;16.402;2023-02-11T16:09:18;6.70;86.70
13310;DHT22;6723;48.256;16.402;2023-02-11T16:16:49;6.60;87.20
13310;DHT22;6723;48.256;16.402;2023-02-11T16:19:21;6.60;87.40
13310;DHT22;6723;48.256;16.402;2023-02-11T16:21:47;6.60;87.60
13310;DHT22;6723;48.256;16.402;2023-02-11T16:24:18;6.60;87.90
13310;DHT22;6723;48.256;16.402;2023-02-11T16:27:13;6.60;88.20
13310;DHT22;6723;48.256;16.402;2023-02-11T16:29:45;6.60;88.40
13310;DHT22;6723;48.256;16.402;2023-02-11T16:32:23;6.50;88.60
13310;DHT22;6723;48.256;16.402;2023-02-11T16:34:51;6.50;89.00
13310;DHT22;6723;48.256;16.402;2023-02-11T16:37:17;6.50;89.00
13310;DHT22;6723;48.256;16.402;2023-02-11T16:39:42;6.50;89.10
13310;DHT22;6723;48.256;16.402;2023-02-11T16:42:10;6.50;89.40
13310;DHT22;6723;48.256;16.402;2023-02-11T16:44:36;6.50;89.60
13310;DHT22;6723;48.256;16.402;2023-02-11T16:47:03;6.50;90.20
13310;DHT22;6723;48.256;16.402;2023-02-11T16:49:37;6.50;90.20
13310;DHT22;6723;48.256;16.402;2023-02-11T16:52:12;6.50;90.20
13310;DHT22;6723;48.256;16.402;2023-02-11T16:54:39;6.50;90.20
13310;DHT22;6723;48.256;16.402;2023-02-11T16:57:14;6.40;90.20
13310;DHT22;6723;48.256;16.402;2023-02-11T16:59:41;6.40;90.40
13310;DHT22;6723;48.256;16.402;2023-02-11T17:02:23;6.40;90.50
13310;DHT22;6723;48.256;16.402;2023-02-11T17:04:54;6.30;90.60
13310;DHT22;6723;48.256;16.402;2023-02-11T17:07:21;6.30;90.70
13310;DHT22;6723;48.256;16.402;2023-02-11T17:09:47;6.30;90.70
13310;DHT22;6723;48.256;16.402;2023-02-11T17:12:12;6.30;90.70
13310;DHT22;6723;48.256;16.402;2023-02-11T17:14:38;6.30;90.90
13310;DHT22;6723;48.256;16.402;2023-02-11T17:17:04;6.40;90.90
13310;DHT22;6723;48.256;16.402;2023-02-11T17:19:30;6.40;91.10
13310;DHT22;6723;48.256;16.402;2023-02-11T17:21:56;6.40;91.10
13310;DHT22;6723;48.256;16.402;2023-02-11T17:24:22;6.40;91.10
13310;DHT22;6723;48.256;16.402;2023-02-11T17:26:48;6.40;91.10
13310;DHT22;6723;48.256;16.402;2023-02-11T17:29:17;6.40;91.10
13310;DHT22;6723;48.256;16.402;2023-02-11T17:31:43;6.40;91.20
13310;DHT22;6723;48.256;16.402;2023-02-11T17:34:12;6.40;91.30
13310;DHT22;6723;48.256;16.402;2023-02-11T17:36:39;6.40;91.30
13310;DHT22;6723;48.256;16.402;2023-02-11T17:39:05;6.40;91.30
13310;DHT22;6723;48.256;16.402;2023-02-11T17:41:31;6.40;91.60
13310;DHT22;6723;48.256;16.402;2023-02-11T17:43:58;6.40;91.50
13310;DHT22;6723;48.256;16.402;2023-02-11T17:46:25;6.50;91.40
13310;DHT22;6723;48.256;16.402;2023-02-11T17:48:53;6.40;91.40
13310;DHT22;6723;48.256;16.402;2023-02-11T17:51:24;6.50;91.60
13310;DHT22;6723;48.256;16.402;2023-02-11T17:53:51;6.40;91.30
13310;DHT22;6723;48.256;16.402;2023-02-11T17:56:18;6.50;91.30
13310;DHT22;6723;48.256;16.402;2023-02-11T17:58:47;6.50;91.20
13310;DHT22;6723;48.256;16.402;2023-02-11T18:01:13;6.50;91.10
13310;DHT22;6723;48.256;16.402;2023-02-11T18:03:39;6.50;91.10
13310;DHT22;6723;48.256;16.402;2023-02-11T18:06:10;6.50;91.00
13310;DHT22;6723;48.256;16.402;2023-02-11T18:08:37;6.50;91.00
13310;DHT22;6723;48.256;16.402;2023-02-11T18:11:07;6.60;91.20
13310;DHT22;6723;48.256;16.402;2023-02-11T18:13:33;6.60;91.10
13310;DHT22;6723;48.256;16.402;2023-02-11T18:16:04;6.60;91.00
13310;DHT22;6723;48.256;16.402;2023-02-11T18:18:31;6.60;91.10
13310;DHT22;6723;48.256;16.402;2023-02-11T18:21:01;6.60;91.00